Silver City, South Dakota
Current Conditions -  °F | °C
As of 12:58 PM on Wednesday 17 Dec 2014 (Local Time) from KRCA Reporting Station
Haze Haze  
Wind Chill: 15°   Ceiling: 300
Heat Index: 22°   Visibility: 4mi
Dew Point: 20°   Wind: 5mph
Humidity: 93%   Direction: 110°ESE
Pressure: 29.97"   Gusts: NA
Location:  44.07°N, 103.324°W
Report Text: KRCA 171958Z 11004KT 4SM BR OVC003 M06/M07 A2997 RMK AO2A SLP202 T10581067 $
Loading
Personal Weather Stations






























Interactive Weather Map New forecast layout! Learn more

10-Day Weather Forecast

Advertisements
Track Severe Weather on mobile